Terminal Aerodrome Forecast
Issued by NWS

Home | Current Version | Previous Version | Text Only | Print | Product List | Glossary On
Versions: 1 2 3 4 5 6 7 8 9 10 11 12 13 14 15 16 17 18 19 20 21 22 23 24 25 26 27
191
FTUS43 KABR 192329
TAFATY
TAF
KATY 192329Z 2000/2024 16011KT 1SM -DZ BR OVC002
      TEMPO 2000/2004 1/4SM -DZ FG
     FM200400 18010KT 1/4SM -DZ FG VV002
     FM201400 14007KT 1/2SM FG OVC003
     FM201500 14008KT 1/4SM FG OVC003
     FM201700 15009KT 1/2SM FG OVC003
     FM201900 15009KT 1 1/2SM BR OVC003=

USA.gov is the U.S. government's official web portal to all federal, state and local government web resources and services.